Time;durP1;ratioP1;P1;durP2;ratioP2;P2;SDS_P1;SDS_P2;PMS_P1;PMS_P2;Temp;Humidity;BMP_temperature;BMP_pressure;BME280_temperature;BME280_humidity;BME280_pressure;Samples;Min_cycle;Max_cycle;Signal;HPM_P1;HPM_P2
2023/07/06 00:00:15;;;;;;;1999.90;999.90;;;;;;;;;;5071162;28;20522;-72
2023/07/06 00:02:43;;;;;;;1999.90;999.90;;;;;;;;;;5071425;28;20045;-73
2023/07/06 00:05:10;;;;;;;1999.90;999.90;;;;;;;;;;5072114;28;20609;-73
2023/07/06 00:07:36;;;;;;;1999.90;999.90;;;;;;;;;;5071742;28;20044;-73
2023/07/06 00:10:04;;;;;;;1999.90;999.90;;;;;;;;;;5071193;28;20453;-72
2023/07/06 00:12:31;;;;;;;1999.90;999.90;;;;;;;;;;5071336;28;20056;-73
2023/07/06 00:14:58;;;;;;;1999.90;999.90;;;;;;;;;;5071514;28;20053;-73
2023/07/06 00:17:24;;;;;;;1999.90;999.90;;;;;;;;;;5071446;28;20220;-73
2023/07/06 00:19:52;;;;;;;1999.90;999.90;;;;;;;;;;5071730;28;20056;-72
2023/07/06 00:22:19;;;;;;;1999.90;999.90;;;;;;;;;;5071352;28;20485;-73
2023/07/06 00:24:46;;;;;;;1999.90;999.90;;;;;;;;;;5071497;28;20044;-73
2023/07/06 00:27:15;;;;;;;1999.90;999.90;;;;;;;;;;5070492;28;20044;-73
2023/07/06 00:29:56;;;;;;;1999.90;999.90;;;;;;;;;;5071347;28;20052;-72
2023/07/06 00:32:27;;;;;;;1999.90;999.90;;;;;;;;;;5071725;28;20048;-73
2023/07/06 00:34:55;;;;;;;1999.90;999.90;;;;;;;;;;5071112;28;20052;-73
2023/07/06 00:37:22;;;;;;;1999.90;999.90;;;;;;;;;;5071336;28;20106;-72
2023/07/06 00:39:49;;;;;;;1999.90;999.90;;;;;;;;;;5071098;28;20047;-72
2023/07/06 00:42:16;;;;;;;1999.90;999.90;;;;;;;;;;5071424;28;20125;-72
2023/07/06 00:44:48;;;;;;;1999.90;999.90;;;;;;;;;;5071166;28;20121;-73
2023/07/06 00:47:15;;;;;;;1999.90;999.90;;;;;;;;;;5071217;28;20052;-73
2023/07/06 00:49:42;;;;;;;1999.90;999.90;;;;;;;;;;5070685;28;20049;-72
2023/07/06 00:52:10;;;;;;;1999.90;999.90;;;;;;;;;;5070497;28;20055;-73
2023/07/06 00:54:40;;;;;;;1999.90;999.90;;;;;;;;;;5070484;28;20041;-73
2023/07/06 00:57:07;;;;;;;1999.90;999.90;;;;;;;;;;5070494;28;20178;-72
2023/07/06 00:59:34;;;;;;;1999.90;999.90;;;;;;;;;;5069747;28;20054;-73
2023/07/06 01:02:00;;;;;;;1999.90;999.90;;;;;;;;;;5070944;28;20507;-73
2023/07/06 01:04:30;;;;;;;1999.90;999.90;;;;;;;;;;5081790;22;20511;-73
2023/07/06 01:06:57;;;;;;;1999.90;999.90;;;;;;;;;;5070713;28;20055;-73
2023/07/06 01:09:27;;;;;;;1999.90;999.90;;;;;;;;;;5070225;28;20051;-73
2023/07/06 01:11:55;;;;;;;1999.90;999.90;;;;;;;;;;5069767;28;20431;-73
2023/07/06 01:14:21;;;;;;;1999.90;999.90;;;;;;;;;;5069246;28;20055;-73
2023/07/06 01:16:53;;;;;;;1999.90;999.90;;;;;;;;;;5070671;28;20052;-73
2023/07/06 01:19:38;;;;;;;1999.90;999.90;;;;;;;;;;5069933;28;20045;-73
2023/07/06 01:22:14;;;;;;;1999.90;999.90;;;;;;;;;;5069984;28;20445;-73
2023/07/06 01:25:00;;;;;;;1999.90;999.90;;;;;;;;;;5069943;28;20116;-73
2023/07/06 01:27:49;;;;;;;1999.90;999.90;;;;;;;;;;5068959;28;20044;-73
2023/07/06 01:30:39;;;;;;;1999.90;999.90;;;;;;;;;;5069515;28;20099;-73
2023/07/06 01:33:12;;;;;;;1999.90;999.90;;;;;;;;;;5069580;28;20099;-73
2023/07/06 01:35:43;;;;;;;1999.90;999.90;;;;;;;;;;5069829;28;20044;-73
2023/07/06 01:38:10;;;;;;;1999.90;999.90;;;;;;;;;;5070160;28;20428;-72
2023/07/06 01:40:37;;;;;;;1999.90;999.90;;;;;;;;;;5068940;28;20044;-72
2023/07/06 01:43:03;;;;;;;1999.90;999.90;;;;;;;;;;5069188;28;20045;-73
2023/07/06 01:45:30;;;;;;;1999.90;999.90;;;;;;;;;;5069819;28;20052;-73
2023/07/06 01:48:00;;;;;;;1999.90;999.90;;;;;;;;;;5069873;28;20049;-73
2023/07/06 01:50:33;;;;;;;1999.90;999.90;;;;;;;;;;5069613;28;20053;-73
2023/07/06 01:53:06;;;;;;;1999.90;999.90;;;;;;;;;;5068880;28;20080;-72
2023/07/06 01:55:38;;;;;;;1999.90;999.90;;;;;;;;;;5068401;28;20045;-73
2023/07/06 01:58:11;;;;;;;1999.90;999.90;;;;;;;;;;5069440;28;20056;-73
2023/07/06 02:00:42;;;;;;;1999.90;999.90;;;;;;;;;;5067871;28;20059;-73
2023/07/06 02:03:09;;;;;;;1999.90;999.90;;;;;;;;;;5067614;28;20052;-73
2023/07/06 02:05:38;;;;;;;1999.90;999.90;;;;;;;;;;5069459;28;20177;-72
2023/07/06 02:08:05;;;;;;;1999.90;999.90;;;;;;;;;;5068757;28;20056;-73
2023/07/06 02:10:32;;;;;;;1999.90;999.90;;;;;;;;;;5069124;28;20051;-73
2023/07/06 02:12:58;;;;;;;1999.90;999.90;;;;;;;;;;5069929;28;20048;-73
2023/07/06 02:15:25;;;;;;;1999.90;999.90;;;;;;;;;;5067502;28;20408;-72
2023/07/06 02:17:55;;;;;;;1999.90;999.90;;;;;;;;;;5069612;28;20112;-72
2023/07/06 02:20:21;;;;;;;1999.90;999.90;;;;;;;;;;5067636;28;20434;-73
2023/07/06 02:22:49;;;;;;;1999.90;999.90;;;;;;;;;;5069004;28;20522;-72
2023/07/06 02:25:16;;;;;;;1999.90;999.90;;;;;;;;;;5069182;28;20051;-72
2023/07/06 02:27:42;;;;;;;1999.90;999.90;;;;;;;;;;5067831;28;20037;-72
2023/07/06 02:30:10;;;;;;;1999.90;999.90;;;;;;;;;;5069440;28;20052;-73
2023/07/06 02:32:37;;;;;;;1999.90;999.90;;;;;;;;;;5068289;28;20045;-72
2023/07/06 02:35:04;;;;;;;1999.90;999.90;;;;;;;;;;5069046;28;20052;-73
2023/07/06 02:37:31;;;;;;;1999.90;999.90;;;;;;;;;;5069032;28;20087;-72
2023/07/06 02:40:00;;;;;;;1999.90;999.90;;;;;;;;;;5068135;28;20059;-72
2023/07/06 02:42:26;;;;;;;1999.90;999.90;;;;;;;;;;5068945;28;20048;-72
2023/07/06 02:44:54;;;;;;;1999.90;999.90;;;;;;;;;;5068628;28;20052;-72
2023/07/06 02:47:21;;;;;;;1999.90;999.90;;;;;;;;;;5068690;28;20087;-72
2023/07/06 02:49:48;;;;;;;1999.90;999.90;;;;;;;;;;5067909;28;20567;-73
2023/07/06 02:52:14;;;;;;;1999.90;999.90;;;;;;;;;;5069305;28;20045;-72
2023/07/06 02:54:41;;;;;;;1999.90;999.90;;;;;;;;;;5068712;28;20052;-72
2023/07/06 02:57:08;;;;;;;1999.90;999.90;;;;;;;;;;5068912;28;20052;-72
2023/07/06 02:59:35;;;;;;;1999.90;999.90;;;;;;;;;;5068777;28;20052;-72
2023/07/06 03:02:03;;;;;;;1999.90;999.90;;;;;;;;;;5069120;28;20048;-73
2023/07/06 03:04:29;;;;;;;1999.90;999.90;;;;;;;;;;5068698;28;20045;-72
2023/07/06 03:06:56;;;;;;;1999.90;999.90;;;;;;;;;;5068470;28;20052;-72
2023/07/06 03:09:24;;;;;;;1999.90;999.90;;;;;;;;;;5068806;28;20094;-72
2023/07/06 03:11:52;;;;;;;1999.90;999.90;;;;;;;;;;5067385;28;20051;-72
2023/07/06 03:14:21;;;;;;;1999.90;999.90;;;;;;;;;;5068824;28;20047;-72
2023/07/06 03:16:48;;;;;;;1999.90;999.90;;;;;;;;;;5068626;28;20558;-73
2023/07/06 03:19:15;;;;;;;1999.90;999.90;;;;;;;;;;5068142;28;20044;-72
2023/07/06 03:21:42;;;;;;;1999.90;999.90;;;;;;;;;;5073136;28;20048;-72
2023/07/06 03:24:09;;;;;;;1999.90;999.90;;;;;;;;;;5072529;28;20102;-72
2023/07/06 03:26:36;;;;;;;1999.90;999.90;;;;;;;;;;5072826;28;20044;-72
2023/07/06 03:29:04;;;;;;;1999.90;999.90;;;;;;;;;;5071089;28;20044;-72
2023/07/06 03:31:33;;;;;;;1999.90;999.90;;;;;;;;;;5072465;28;20407;-73
2023/07/06 03:33:59;;;;;;;1999.90;999.90;;;;;;;;;;5071973;28;20128;-72
2023/07/06 03:36:26;;;;;;;1999.90;999.90;;;;;;;;;;5072264;28;20044;-73
2023/07/06 03:38:53;;;;;;;1999.90;999.90;;;;;;;;;;5071883;28;20469;-73
2023/07/06 03:41:19;;;;;;;1999.90;999.90;;;;;;;;;;5072195;28;20044;-72
2023/07/06 03:43:46;;;;;;;1999.90;999.90;;;;;;;;;;5071010;28;20503;-72
2023/07/06 03:46:14;;;;;;;1999.90;999.90;;;;;;;;;;5071822;28;20063;-72
2023/07/06 03:48:44;;;;;;;1999.90;999.90;;;;;;;;;;5072041;28;20431;-72
2023/07/06 03:51:11;;;;;;;1999.90;999.90;;;;;;;;;;5071752;28;20121;-73
2023/07/06 03:53:37;;;;;;;1999.90;999.90;;;;;;;;;;5071274;28;20051;-73
2023/07/06 03:56:04;;;;;;;1999.90;999.90;;;;;;;;;;5072080;28;20048;-72
2023/07/06 03:58:31;;;;;;;1999.90;999.90;;;;;;;;;;5072022;28;20486;-72
2023/07/06 04:00:58;;;;;;;1999.90;999.90;;;;;;;;;;5071876;28;20412;-72
2023/07/06 04:03:26;;;;;;;1999.90;999.90;;;;;;;;;;5071962;28;20053;-72
2023/07/06 04:05:54;;;;;;;1999.90;999.90;;;;;;;;;;5071542;28;20523;-72
2023/07/06 04:08:22;;;;;;;1999.90;999.90;;;;;;;;;;5071664;28;20051;-73
2023/07/06 04:10:49;;;;;;;1999.90;999.90;;;;;;;;;;5071561;28;20049;-72
2023/07/06 04:13:16;;;;;;;1999.90;999.90;;;;;;;;;;5071835;28;20407;-72
2023/07/06 04:15:45;;;;;;;1999.90;999.90;;;;;;;;;;5071605;28;20048;-72
2023/07/06 04:18:12;;;;;;;1999.90;999.90;;;;;;;;;;5071640;28;20041;-72
2023/07/06 04:20:39;;;;;;;1999.90;999.90;;;;;;;;;;5071947;28;20083;-72
2023/07/06 04:23:09;;;;;;;1999.90;999.90;;;;;;;;;;5069847;28;20059;-73
2023/07/06 04:25:36;;;;;;;1999.90;999.90;;;;;;;;;;5071488;28;20044;-73
2023/07/06 04:28:06;;;;;;;1999.90;999.90;;;;;;;;;;5071735;28;20048;-72
2023/07/06 04:30:33;;;;;;;1999.90;999.90;;;;;;;;;;5069528;28;20045;-73
2023/07/06 04:33:01;;;;;;;1999.90;999.90;;;;;;;;;;5071900;28;20048;-73
2023/07/06 04:35:27;;;;;;;1999.90;999.90;;;;;;;;;;5071738;28;20057;-73
2023/07/06 04:37:54;;;;;;;1999.90;999.90;;;;;;;;;;5070768;28;20056;-72
2023/07/06 04:40:26;;;;;;;1999.90;999.90;;;;;;;;;;5071291;28;20052;-73
2023/07/06 04:42:53;;;;;;;1999.90;999.90;;;;;;;;;;5070343;28;20084;-73
2023/07/06 04:45:21;;;;;;;1999.90;999.90;;;;;;;;;;5071407;28;20071;-73
2023/07/06 04:47:48;;;;;;;1999.90;999.90;;;;;;;;;;5071234;28;20044;-73
2023/07/06 04:50:17;;;;;;;1999.90;999.90;;;;;;;;;;5070488;28;20049;-73
2023/07/06 04:52:44;;;;;;;1999.90;999.90;;;;;;;;;;5070821;28;20127;-73
2023/07/06 04:55:10;;;;;;;1999.90;999.90;;;;;;;;;;5070345;28;20052;-72
2023/07/06 04:57:38;;;;;;;1999.90;999.90;;;;;;;;;;5071001;28;20052;-73
2023/07/06 05:00:12;;;;;;;1999.90;999.90;;;;;;;;;;5070871;28;20053;-73
2023/07/06 05:02:39;;;;;;;1999.90;999.90;;;;;;;;;;5071385;28;20083;-73
2023/07/06 05:05:06;;;;;;;1999.90;999.90;;;;;;;;;;5070000;28;20087;-73
2023/07/06 05:07:33;;;;;;;1999.90;999.90;;;;;;;;;;5071227;28;20037;-73
2023/07/06 05:09:59;;;;;;;1999.90;999.90;;;;;;;;;;5070559;28;20048;-73
2023/07/06 05:12:25;;;;;;;1999.90;999.90;;;;;;;;;;5071071;28;20053;-72
2023/07/06 05:14:53;;;;;;;1999.90;999.90;;;;;;;;;;5070914;28;20448;-72
2023/07/06 05:17:20;;;;;;;1999.90;999.90;;;;;;;;;;5069835;28;20072;-72
2023/07/06 05:19:46;;;;;;;1999.90;999.90;;;;;;;;;;5070431;28;20470;-72
2023/07/06 05:22:13;;;;;;;1999.90;999.90;;;;;;;;;;5070555;28;20064;-73
2023/07/06 05:24:40;;;;;;;1999.90;999.90;;;;;;;;;;5070764;28;20051;-72
2023/07/06 05:27:07;;;;;;;1999.90;999.90;;;;;;;;;;5070468;28;20596;-72
2023/07/06 05:29:34;;;;;;;1999.90;999.90;;;;;;;;;;5069729;28;20048;-73
2023/07/06 05:32:01;;;;;;;1999.90;999.90;;;;;;;;;;5070622;28;20067;-72
2023/07/06 05:34:28;;;;;;;1999.90;999.90;;;;;;;;;;5070342;28;20063;-72
2023/07/06 05:36:54;;;;;;;1999.90;999.90;;;;;;;;;;5068622;28;20404;-73
2023/07/06 05:39:21;;;;;;;1999.90;999.90;;;;;;;;;;5070391;28;20071;-73
2023/07/06 05:41:47;;;;;;;1999.90;999.90;;;;;;;;;;5068657;28;20067;-73
2023/07/06 05:44:14;;;;;;;1999.90;999.90;;;;;;;;;;5069061;28;20071;-73
2023/07/06 05:46:40;;;;;;;1999.90;999.90;;;;;;;;;;5070181;28;20060;-72
2023/07/06 05:49:08;;;;;;;1999.90;999.90;;;;;;;;;;5069509;28;20044;-73
2023/07/06 05:51:34;;;;;;;1999.90;999.90;;;;;;;;;;5070173;28;20044;-73
2023/07/06 05:54:02;;;;;;;1999.90;999.90;;;;;;;;;;5069593;28;20056;-72
2023/07/06 05:56:31;;;;;;;1999.90;999.90;;;;;;;;;;5069978;28;20045;-72
2023/07/06 05:58:59;;;;;;;1999.90;999.90;;;;;;;;;;5068822;28;20489;-73
2023/07/06 06:01:26;;;;;;;1999.90;999.90;;;;;;;;;;5069592;28;20044;-72
2023/07/06 06:03:53;;;;;;;1999.90;999.90;;;;;;;;;;5069284;28;20114;-73
2023/07/06 06:06:23;;;;;;;1999.90;999.90;;;;;;;;;;5069812;28;20044;-73
2023/07/06 06:08:51;;;;;;;1999.90;999.90;;;;;;;;;;5068575;28;20476;-73
2023/07/06 06:11:19;;;;;;;1999.90;999.90;;;;;;;;;;5069867;28;20494;-73
2023/07/06 06:13:45;;;;;;;1999.90;999.90;;;;;;;;;;5069667;28;20044;-73
2023/07/06 06:16:12;;;;;;;1999.90;999.90;;;;;;;;;;5069429;28;20049;-73
2023/07/06 06:18:40;;;;;;;1999.90;999.90;;;;;;;;;;5069219;28;20048;-73
2023/07/06 06:21:06;;;;;;;1999.90;999.90;;;;;;;;;;5069362;28;20539;-73
2023/07/06 06:23:34;;;;;;;1999.90;999.90;;;;;;;;;;5069875;28;20044;-73
2023/07/06 06:26:01;;;;;;;1999.90;999.90;;;;;;;;;;5069367;28;20044;-73
2023/07/06 06:28:27;;;;;;;1999.90;999.90;;;;;;;;;;5068991;28;20378;-73
2023/07/06 06:30:55;;;;;;;1999.90;999.90;;;;;;;;;;5069382;28;20056;-73
2023/07/06 06:33:22;;;;;;;1999.90;999.90;;;;;;;;;;5068794;28;20123;-73
2023/07/06 06:35:50;;;;;;;1999.90;999.90;;;;;;;;;;5069165;28;20117;-73
2023/07/06 06:38:17;;;;;;;1999.90;999.90;;;;;;;;;;5069341;28;20049;-73
2023/07/06 06:40:45;;;;;;;1999.90;999.90;;;;;;;;;;5069162;28;20389;-73
2023/07/06 06:43:11;;;;;;;1999.90;999.90;;;;;;;;;;5069292;28;20062;-73
2023/07/06 06:45:39;;;;;;;1999.90;999.90;;;;;;;;;;5069260;28;20415;-73
2023/07/06 06:48:06;;;;;;;1999.90;999.90;;;;;;;;;;5068902;28;20049;-73
2023/07/06 06:50:32;;;;;;;1999.90;999.90;;;;;;;;;;5069382;28;20056;-73
2023/07/06 06:52:58;;;;;;;1999.90;999.90;;;;;;;;;;5069587;28;20048;-73
2023/07/06 06:55:25;;;;;;;1999.90;999.90;;;;;;;;;;5068644;28;20075;-73
2023/07/06 06:57:53;;;;;;;1999.90;999.90;;;;;;;;;;5069462;28;20047;-74
2023/07/06 07:00:20;;;;;;;1999.90;999.90;;;;;;;;;;5068950;28;20068;-73
2023/07/06 07:02:46;;;;;;;1999.90;999.90;;;;;;;;;;5068025;28;20044;-73
2023/07/06 07:05:15;;;;;;;1999.90;999.90;;;;;;;;;;5068885;28;20053;-74
2023/07/06 07:07:41;;;;;;;1999.90;999.90;;;;;;;;;;5067338;28;20499;-74
2023/07/06 07:10:09;;;;;;;1999.90;999.90;;;;;;;;;;5068865;28;20766;-73
2023/07/06 07:12:37;;;;;;;1999.90;999.90;;;;;;;;;;5068878;28;20080;-74
2023/07/06 07:15:05;;;;;;;1999.90;999.90;;;;;;;;;;5069043;28;20686;-74
2023/07/06 07:17:32;;;;;;;1999.90;999.90;;;;;;;;;;5068960;28;20041;-74
2023/07/06 07:19:58;;;;;;;1999.90;999.90;;;;;;;;;;5068979;28;20114;-74
2023/07/06 07:22:25;;;;;;;1999.90;999.90;;;;;;;;;;5068936;28;20049;-74
2023/07/06 07:24:51;;;;;;;1999.90;999.90;;;;;;;;;;5069082;28;20140;-73
2023/07/06 07:27:18;;;;;;;1999.90;999.90;;;;;;;;;;5069088;28;20052;-74
2023/07/06 07:29:47;;;;;;;1999.90;999.90;;;;;;;;;;5068906;28;20055;-73
2023/07/06 07:32:15;;;;;;;1999.90;999.90;;;;;;;;;;5068670;28;20052;-74
2023/07/06 07:34:43;;;;;;;1999.90;999.90;;;;;;;;;;5068763;28;20048;-73
2023/07/06 07:37:14;;;;;;;1999.90;999.90;;;;;;;;;;5068681;28;20066;-74
2023/07/06 07:39:41;;;;;;;1999.90;999.90;;;;;;;;;;5068486;28;20488;-73
2023/07/06 07:42:08;;;;;;;1999.90;999.90;;;;;;;;;;5069020;28;20382;-73
2023/07/06 07:44:34;;;;;;;1999.90;999.90;;;;;;;;;;5068420;28;20064;-74
2023/07/06 07:47:02;;;;;;;1999.90;999.90;;;;;;;;;;5068732;28;20839;-74
2023/07/06 07:49:30;;;;;;;1999.90;999.90;;;;;;;;;;5068606;28;20044;-74
2023/07/06 07:51:56;;;;;;;1999.90;999.90;;;;;;;;;;5068460;28;20080;-74
2023/07/06 07:54:23;;;;;;;1999.90;999.90;;;;;;;;;;5067496;28;20420;-74
2023/07/06 07:56:53;;;;;;;1999.90;999.90;;;;;;;;;;5068356;28;20041;-74
2023/07/06 07:59:20;;;;;;;1999.90;999.90;;;;;;;;;;5068828;28;20045;-74
2023/07/06 08:01:47;;;;;;;1999.90;999.90;;;;;;;;;;5068630;28;20059;-73
2023/07/06 08:04:14;;;;;;;1999.90;999.90;;;;;;;;;;5067361;28;20122;-73
2023/07/06 08:06:42;;;;;;;1999.90;999.90;;;;;;;;;;5070079;28;20128;-74
2023/07/06 08:09:09;;;;;;;1999.90;999.90;;;;;;;;;;5071706;28;20090;-73
2023/07/06 08:11:38;;;;;;;1999.90;999.90;;;;;;;;;;5071820;28;20098;-73
2023/07/06 08:14:08;;;;;;;1999.90;999.90;;;;;;;;;;5071550;28;20048;-73
2023/07/06 08:16:34;;;;;;;1999.90;999.90;;;;;;;;;;5071333;28;20123;-73
2023/07/06 08:19:05;;;;;;;1999.90;999.90;;;;;;;;;;5070652;28;20048;-71
2023/07/06 08:21:31;;;;;;;1999.90;999.90;;;;;;;;;;5071610;28;20105;-73
2023/07/06 08:24:00;;;;;;;1999.90;999.90;;;;;;;;;;5070766;28;20081;-73
2023/07/06 08:26:29;;;;;;;1999.90;999.90;;;;;;;;;;5071567;28;20040;-73
2023/07/06 08:28:55;;;;;;;1999.90;999.90;;;;;;;;;;5071830;28;20048;-73
2023/07/06 08:31:22;;;;;;;1999.90;999.90;;;;;;;;;;5071362;28;20211;-71
2023/07/06 08:33:49;;;;;;;1999.90;999.90;;;;;;;;;;5070602;28;20037;-72
2023/07/06 08:36:18;;;;;;;1999.90;999.90;;;;;;;;;;5071362;28;20048;-73
2023/07/06 08:38:46;;;;;;;1999.90;999.90;;;;;;;;;;5069978;28;20475;-73
2023/07/06 08:41:19;;;;;;;1999.90;999.90;;;;;;;;;;5069980;28;20147;-73
2023/07/06 08:43:46;;;;;;;1999.90;999.90;;;;;;;;;;5071523;28;20063;-73
2023/07/06 08:46:13;;;;;;;1999.90;999.90;;;;;;;;;;5071621;28;20056;-72
2023/07/06 08:48:41;;;;;;;1999.90;999.90;;;;;;;;;;5071217;28;20413;-73
2023/07/06 08:51:15;;;;;;;1999.90;999.90;;;;;;;;;;5071208;28;20064;-73
2023/07/06 08:53:50;;;;;;;1999.90;999.90;;;;;;;;;;5070610;28;20136;-73
2023/07/06 08:56:19;;;;;;;1999.90;999.90;;;;;;;;;;5070913;28;20462;-72
2023/07/06 08:58:46;;;;;;;1999.90;999.90;;;;;;;;;;5071115;28;20128;-73
2023/07/06 09:01:17;;;;;;;1999.90;999.90;;;;;;;;;;5071205;28;20048;-73
2023/07/06 09:03:46;;;;;;;1999.90;999.90;;;;;;;;;;5070915;28;20048;-72
2023/07/06 09:06:15;;;;;;;1999.90;999.90;;;;;;;;;;5071139;28;20048;-73
2023/07/06 09:08:45;;;;;;;1999.90;999.90;;;;;;;;;;5070819;28;20056;-73
2023/07/06 09:11:12;;;;;;;1999.90;999.90;;;;;;;;;;5070233;28;20041;-73
2023/07/06 09:13:46;;;;;;;1999.90;999.90;;;;;;;;;;5070750;28;20062;-73
2023/07/06 09:16:15;;;;;;;1999.90;999.90;;;;;;;;;;5070454;28;20507;-72
2023/07/06 09:18:43;;;;;;;1999.90;999.90;;;;;;;;;;5068737;28;20047;-73
2023/07/06 09:21:09;;;;;;;1999.90;999.90;;;;;;;;;;5069758;28;20080;-73
2023/07/06 09:23:36;;;;;;;1999.90;999.90;;;;;;;;;;5070502;28;20045;-73
2023/07/06 09:26:07;;;;;;;1999.90;999.90;;;;;;;;;;5069557;28;20057;-73
2023/07/06 09:28:33;;;;;;;1999.90;999.90;;;;;;;;;;5070102;28;20468;-72
2023/07/06 09:31:08;;;;;;;1999.90;999.90;;;;;;;;;;5070419;28;20051;-72
2023/07/06 09:33:35;;;;;;;1999.90;999.90;;;;;;;;;;5070283;28;20555;-72
2023/07/06 09:36:06;;;;;;;1999.90;999.90;;;;;;;;;;5070556;28;20064;-72
2023/07/06 09:38:43;;;;;;;1999.90;999.90;;;;;;;;;;5070040;28;20504;-72
2023/07/06 09:41:20;;;;;;;1999.90;999.90;;;;;;;;;;5070280;28;20064;-73
2023/07/06 09:43:46;;;;;;;1999.90;999.90;;;;;;;;;;5070279;28;20141;-72
2023/07/06 09:46:14;;;;;;;1999.90;999.90;;;;;;;;;;5070333;28;20144;-73
2023/07/06 09:48:42;;;;;;;1999.90;999.90;;;;;;;;;;5069873;28;20036;-73
2023/07/06 09:51:14;;;;;;;1999.90;999.90;;;;;;;;;;5070013;28;20057;-73
2023/07/06 09:53:44;;;;;;;1999.90;999.90;;;;;;;;;;5069387;28;20613;-72
2023/07/06 09:56:13;;;;;;;1999.90;999.90;;;;;;;;;;5069395;28;20044;-73
2023/07/06 09:58:41;;;;;;;1999.90;999.90;;;;;;;;;;5069950;28;20048;-72
2023/07/06 10:01:15;;;;;;;1999.90;999.90;;;;;;;;;;5069526;28;20048;-73
2023/07/06 10:03:50;;;;;;;1999.90;999.90;;;;;;;;;;5068128;28;20131;-73
2023/07/06 10:06:31;;;;;;;1999.90;999.90;;;;;;;;;;5069725;28;20040;-72
2023/07/06 10:08:59;;;;;;;1999.90;999.90;;;;;;;;;;5069768;28;20059;-73
2023/07/06 10:11:34;;;;;;;1999.90;999.90;;;;;;;;;;5068401;28;20526;-72
2023/07/06 10:14:04;;;;;;;;;;;;;;;;;;5069763;28;20049;-73
2023/07/06 10:16:42;;;;;;;1999.90;999.90;;;;;;;;;;5069490;28;19925;-72
2023/07/06 10:19:17;;;;;;;1999.90;999.90;;;;;;;;;;5069388;28;20072;-73
2023/07/06 10:21:46;;;;;;;1999.90;999.90;;;;;;;;;;5069769;28;20048;-72
2023/07/06 10:24:31;;;;;;;1999.90;999.90;;;;;;;;;;5069413;28;20048;-73
2023/07/06 10:26:59;;;;;;;;;;;;;;;;;;5068760;28;20041;-73
2023/07/06 10:29:30;;;;;;;1999.90;999.90;;;;;;;;;;5068845;28;19927;-72
2023/07/06 10:32:04;;;;;;;1999.90;999.90;;;;;;;;;;5068448;28;20056;-72
2023/07/06 10:34:34;;;;;;;1999.90;999.90;;;;;;;;;;5069203;28;20127;-72
2023/07/06 10:37:02;;;;;;;1999.90;999.90;;;;;;;;;;5069934;28;20051;-73
2023/07/06 10:40:04;;;;;;;1999.90;999.90;;;;;;;;;;5068949;28;20056;-73
2023/07/06 10:42:32;;;;;;;1999.90;999.90;;;;;;;;;;5069416;28;20056;-72
2023/07/06 10:44:59;;;;;;;1999.90;999.90;;;;;;;;;;5069483;28;20099;-72
2023/07/06 10:47:39;;;;;;;1999.90;999.90;;;;;;;;;;5069355;28;20072;-72
2023/07/06 10:50:25;;;;;;;1999.90;999.90;;;;;;;;;;5069217;28;20546;-72
2023/07/06 10:52:58;;;;;;;1999.90;999.90;;;;;;;;;;5068611;28;20048;-72
2023/07/06 10:55:29;;;;;;;1999.90;999.90;;;;;;;;;;5069314;28;20722;-73
2023/07/06 10:57:58;;;;;;;1999.90;999.90;;;;;;;;;;5069021;28;20044;-73
2023/07/06 11:00:33;;;;;;;1999.90;999.90;;;;;;;;;;5068858;28;20139;-74
2023/07/06 11:03:03;;;;;;;1999.90;999.90;;;;;;;;;;5068500;28;20056;-74
2023/07/06 11:05:31;;;;;;;1999.90;999.90;;;;;;;;;;5068427;28;20587;-73
2023/07/06 11:07:59;;;;;;;1999.90;999.90;;;;;;;;;;5068960;28;20504;-73
2023/07/06 11:10:32;;;;;;;1999.90;999.90;;;;;;;;;;5069182;28;20044;-73
2023/07/06 11:13:16;;;;;;;1999.90;999.90;;;;;;;;;;5069238;28;20052;-73
2023/07/06 11:15:56;;;;;;;1999.90;999.90;;;;;;;;;;5066941;28;20041;-73
2023/07/06 11:18:27;;;;;;;1999.90;999.90;;;;;;;;;;5068613;28;20381;-73
2023/07/06 11:20:57;;;;;;;1999.90;999.90;;;;;;;;;;5069038;28;20059;-73
2023/07/06 11:23:32;;;;;;;1999.90;999.90;;;;;;;;;;5068726;28;20629;-74
2023/07/06 11:25:59;;;;;;;1999.90;999.90;;;;;;;;;;5068208;28;20045;-74
2023/07/06 11:28:27;;;;;;;1999.90;999.90;;;;;;;;;;5068982;28;20059;-74
2023/07/06 11:31:00;;;;;;;1999.90;999.90;;;;;;;;;;5067898;28;20076;-74
2023/07/06 11:33:34;;;;;;;1999.90;999.90;;;;;;;;;;5068232;28;20143;-74
2023/07/06 11:36:06;;;;;;;1999.90;999.90;;;;;;;;;;5068879;28;20098;-74
2023/07/06 11:38:52;;;;;;;1999.90;999.90;;;;;;;;;;5066411;28;20041;-75
2023/07/06 11:41:29;;;;;;;1999.90;999.90;;;;;;;;;;5071515;28;20049;-74
2023/07/06 11:44:06;;;;;;;1999.90;999.90;;;;;;;;;;5072710;28;20056;-74
2023/07/06 11:46:42;;;;;;;1999.90;999.90;;;;;;;;;;5072211;28;20504;-74
2023/07/06 11:49:32;;;;;;;1999.90;999.90;;;;;;;;;;5070730;28;20051;-74
2023/07/06 11:51:59;;;;;;;1999.90;999.90;;;;;;;;;;5071600;28;20051;-74
2023/07/06 11:54:48;;;;;;;1999.90;999.90;;;;;;;;;;5071274;28;20083;-73
2023/07/06 11:57:31;;;;;;;1999.90;999.90;;;;;;;;;;5071274;28;20131;-74
2023/07/06 12:00:22;;;;;;;1999.90;999.90;;;;;;;;;;5072115;28;20063;-74
2023/07/06 12:02:58;;;;;;;1999.90;999.90;;;;;;;;;;5071877;28;20056;-74
2023/07/06 12:05:29;;;;;;;1999.90;999.90;;;;;;;;;;5071772;28;20153;-74
2023/07/06 12:07:57;;;;;;;1999.90;999.90;;;;;;;;;;5071498;28;20059;-74
2023/07/06 12:10:24;;;;;;;1999.90;999.90;;;;;;;;;;5072027;28;20053;-74
2023/07/06 12:12:52;;;;;;;1999.90;999.90;;;;;;;;;;5071703;28;20045;-74
2023/07/06 12:15:21;;;;;;;1999.90;999.90;;;;;;;;;;5071901;28;20041;-73
2023/07/06 12:17:49;;;;;;;1999.90;999.90;;;;;;;;;;5071457;28;20102;-73
2023/07/06 12:20:16;;;;;;;1999.90;999.90;;;;;;;;;;5071562;28;20052;-73
2023/07/06 12:22:53;;;;;;;1999.90;999.90;;;;;;;;;;5071774;28;20060;-74
2023/07/06 12:25:20;;;;;;;1999.90;999.90;;;;;;;;;;5071166;28;20041;-73
2023/07/06 12:27:46;;;;;;;1999.90;999.90;;;;;;;;;;5070639;28;20127;-73
2023/07/06 12:30:15;;;;;;;1999.90;999.90;;;;;;;;;;5071632;28;20052;-73
2023/07/06 12:32:43;;;;;;;1999.90;999.90;;;;;;;;;;5071553;28;20443;-73
2023/07/06 12:35:12;;;;;;;1999.90;999.90;;;;;;;;;;5071385;28;20051;-73
2023/07/06 12:37:41;;;;;;;1999.90;999.90;;;;;;;;;;5071607;28;20449;-73
2023/07/06 12:40:19;;;;;;;1999.90;999.90;;;;;;;;;;5071590;28;20051;-73
2023/07/06 12:42:46;;;;;;;1999.90;999.90;;;;;;;;;;5071910;28;20048;-74
2023/07/06 12:45:15;;;;;;;1999.90;999.90;;;;;;;;;;5071501;28;20080;-74
2023/07/06 12:47:43;;;;;;;1999.90;999.90;;;;;;;;;;5070716;28;20053;-74
2023/07/06 12:50:14;;;;;;;1999.90;999.90;;;;;;;;;;5071058;28;20056;-73
2023/07/06 12:52:40;;;;;;;1999.90;999.90;;;;;;;;;;5070853;28;20083;-74
2023/07/06 12:55:13;;;;;;;1999.90;999.90;;;;;;;;;;5071256;28;20412;-74
2023/07/06 12:57:43;;;;;;;1999.90;999.90;;;;;;;;;;5070180;28;20056;-74
2023/07/06 13:00:16;;;;;;;1999.90;999.90;;;;;;;;;;5071171;28;20048;-74
2023/07/06 13:02:43;;;;;;;1999.90;999.90;;;;;;;;;;5070029;28;20044;-74
2023/07/06 13:05:14;;;;;;;1999.90;999.90;;;;;;;;;;5070658;28;20079;-74
2023/07/06 13:07:42;;;;;;;1999.90;999.90;;;;;;;;;;5070891;28;20055;-74
2023/07/06 13:10:15;;;;;;;1999.90;999.90;;;;;;;;;;5071001;28;20052;-74
2023/07/06 13:12:47;;;;;;;1999.90;999.90;;;;;;;;;;5070176;28;20485;-73
2023/07/06 13:15:16;;;;;;;1999.90;999.90;;;;;;;;;;5070285;28;20036;-74
2023/07/06 13:17:49;;;;;;;1999.90;999.90;;;;;;;;;;5070754;28;20390;-74
2023/07/06 13:20:15;;;;;;;1999.90;999.90;;;;;;;;;;5070942;28;20143;-74
2023/07/06 13:22:41;;;;;;;1999.90;999.90;;;;;;;;;;5069460;28;20051;-74
2023/07/06 13:25:17;;;;;;;1999.90;999.90;;;;;;;;;;5070636;28;20055;-74
2023/07/06 13:27:47;;;;;;;1999.90;999.90;;;;;;;;;;5070320;28;20098;-74
2023/07/06 13:30:16;;;;;;;1999.90;999.90;;;;;;;;;;5069946;28;20389;-74
2023/07/06 13:32:43;;;;;;;1999.90;999.90;;;;;;;;;;5069685;28;20515;-74
2023/07/06 13:35:11;;;;;;;1999.90;999.90;;;;;;;;;;5070385;28;20052;-74
2023/07/06 13:37:42;;;;;;;1999.90;999.90;;;;;;;;;;5069993;28;20546;-74
2023/07/06 13:40:14;;;;;;;1999.90;999.90;;;;;;;;;;5070159;28;20454;-74
2023/07/06 13:42:43;;;;;;;1999.90;999.90;;;;;;;;;;5069190;28;20040;-75
2023/07/06 13:45:13;;;;;;;1999.90;999.90;;;;;;;;;;5069105;28;20058;-74
2023/07/06 13:47:40;;;;;;;1999.90;999.90;;;;;;;;;;5069786;28;20159;-74
2023/07/06 13:50:07;;;;;;;1999.90;999.90;;;;;;;;;;5069822;28;20052;-74
2023/07/06 13:52:34;;;;;;;1999.90;999.90;;;;;;;;;;5068518;28;20441;-74